Time;durP1;ratioP1;P1;durP2;ratioP2;P2;SDS_P1;SDS_P2;PMS_P1;PMS_P2;Temp;Humidity;BMP_temperature;BMP_pressure;BME280_temperature;BME280_humidity;BME280_pressure;Samples;Min_cycle;Max_cycle;Signal;HPM_P1;HPM_P2
2023/08/08 00:00:59;;;;;;;12.27;11.87;;;15.30;1.00;;;;;;4885008;29;20475;-83
2023/08/08 00:03:30;;;;;;;12.23;11.77;;;15.30;1.00;;;;;;4880410;29;20490;-85
2023/08/08 00:06:05;;;;;;;11.40;11.10;;;15.30;1.00;;;;;;4882973;29;20459;-85
2023/08/08 00:08:39;;;;;;;11.70;11.47;;;15.40;1.00;;;;;;4887725;29;20848;-84
2023/08/08 00:11:14;;;;;;;12.10;11.60;;;15.40;1.00;;;;;;4883052;29;20464;-86
2023/08/08 00:13:45;;;;;;;12.00;11.70;;;15.30;1.00;;;;;;4883578;29;20487;-85
2023/08/08 00:16:16;;;;;;;12.30;11.70;;;15.30;1.00;;;;;;4884517;29;20457;-86
2023/08/08 00:18:58;;;;;;;11.80;11.50;;;15.30;1.00;;;;;;4881312;29;20496;-89
2023/08/08 00:21:42;;;;;;;11.80;11.40;;;15.30;1.00;;;;;;4901632;29;20452;-85
2023/08/08 00:24:23;;;;;;;11.83;11.53;;;15.40;1.00;;;;;;4885101;29;20473;-84
2023/08/08 00:26:52;;;;;;;12.00;11.80;;;15.30;1.00;;;;;;4881726;29;20470;-84
2023/08/08 00:29:30;;;;;;;12.40;11.90;;;15.40;1.00;;;;;;4886200;29;20482;-85
2023/08/08 00:32:00;;;;;;;11.80;11.50;;;15.40;1.00;;;;;;4883716;29;21100;-85
2023/08/08 00:34:36;;;;;;;12.23;11.93;;;15.40;1.00;;;;;;4883896;29;20471;-86
2023/08/08 00:37:07;;;;;;;12.10;11.70;;;15.40;1.00;;;;;;4882351;29;21030;-86
2023/08/08 00:39:42;;;;;;;12.30;12.00;;;15.40;1.00;;;;;;4884018;29;20480;-86
2023/08/08 00:42:20;;;;;;;12.23;11.83;;;15.40;1.00;;;;;;4879060;29;20535;-86
2023/08/08 00:44:54;;;;;;;11.87;11.57;;;15.50;1.00;;;;;;4884382;29;20461;-86
2023/08/08 00:47:29;;;;;;;12.17;11.80;;;15.50;1.00;;;;;;4884719;29;20485;-86
2023/08/08 00:50:04;;;;;;;12.27;11.90;;;15.50;1.00;;;;;;4899845;29;20468;-89
2023/08/08 00:52:35;;;;;;;12.00;11.70;;;15.50;1.00;;;;;;4922097;29;20608;-89
2023/08/08 00:55:09;;;;;;;12.33;11.80;;;15.50;1.00;;;;;;4902585;29;20828;-86
2023/08/08 00:57:48;;;;;;;12.40;12.10;;;15.60;1.00;;;;;;4887404;29;20479;-86
2023/08/08 01:00:29;;;;;;;12.30;12.00;;;15.60;1.00;;;;;;4884793;29;20504;-87
2023/08/08 01:02:57;;;;;;;12.60;12.20;;;15.60;1.00;;;;;;4882825;29;20567;-84
2023/08/08 01:05:36;;;;;;;12.83;12.43;;;15.60;1.00;;;;;;4882347;29;20475;-86
2023/08/08 01:08:20;;;;;;;12.20;11.90;;;15.50;1.00;;;;;;4881618;29;20540;-86
2023/08/08 01:10:54;;;;;;;12.90;12.20;;;15.50;1.00;;;;;;4883957;29;20467;-86
2023/08/08 01:13:36;;;;;;;12.47;12.07;;;15.60;1.00;;;;;;4880838;29;21674;-85
2023/08/08 01:16:11;;;;;;;12.73;12.43;;;15.50;1.00;;;;;;4888848;29;20997;-84
2023/08/08 01:18:49;;;;;;;13.53;13.13;;;15.50;1.00;;;;;;4883418;29;20460;-86
2023/08/08 01:21:23;;;;;;;13.30;13.00;;;15.50;1.00;;;;;;4885011;29;20470;-85
2023/08/08 01:24:07;;;;;;;13.60;13.20;;;15.50;1.00;;;;;;4883773;29;20488;-87
2023/08/08 01:26:41;;;;;;;13.10;12.80;;;15.50;1.00;;;;;;4885726;29;20522;-88
2023/08/08 01:29:17;;;;;;;12.97;12.67;;;15.50;1.00;;;;;;4886124;29;20487;-83
2023/08/08 01:31:51;;;;;;;13.73;13.20;;;15.50;1.00;;;;;;4884725;29;20550;-85
2023/08/08 01:34:22;;;;;;;13.83;13.47;;;15.50;1.00;;;;;;4886471;29;20479;-86
2023/08/08 01:37:08;;;;;;;13.53;13.13;;;15.50;1.00;;;;;;4877691;29;20466;-84
2023/08/08 01:39:44;;;;;;;13.73;13.33;;;15.50;1.00;;;;;;4884865;29;21140;-85
2023/08/08 01:42:24;;;;;;;13.70;13.40;;;15.50;1.00;;;;;;4885495;29;20524;-84
2023/08/08 01:45:03;;;;;;;13.70;13.40;;;15.50;1.00;;;;;;4884782;29;20994;-85
2023/08/08 01:47:41;;;;;;;13.90;13.40;;;15.40;1.00;;;;;;4886900;29;20471;-87
2023/08/08 01:50:13;;;;;;;13.70;13.30;;;15.50;1.00;;;;;;4884915;29;20491;-84
2023/08/08 01:52:48;;;;;;;13.80;13.30;;;15.50;1.00;;;;;;4888054;29;20501;-84
2023/08/08 01:55:22;;;;;;;13.50;13.10;;;15.60;1.00;;;;;;4883945;29;20619;-85
2023/08/08 01:57:58;;;;;;;13.70;13.33;;;15.50;1.00;;;;;;4884798;29;20475;-85
2023/08/08 02:00:31;;;;;;;14.30;13.73;;;15.50;1.00;;;;;;4883038;29;20466;-85
2023/08/08 02:03:02;;;;;;;13.87;13.53;;;15.50;1.00;;;;;;4886160;29;20565;-85
2023/08/08 02:05:31;;;;;;;13.80;13.40;;;15.50;1.00;;;;;;4888411;29;20970;-88
2023/08/08 02:08:02;;;;;;;13.80;13.50;;;15.40;1.00;;;;;;4887922;29;20856;-85
2023/08/08 02:10:33;;;;;;;13.97;13.57;;;15.40;1.00;;;;;;4885964;29;20480;-85
2023/08/08 02:13:07;;;;;;;13.30;13.00;;;15.50;1.00;;;;;;4884350;29;20520;-90
2023/08/08 02:15:40;;;;;;;14.37;13.90;;;15.50;1.00;;;;;;4893906;29;20506;-85
2023/08/08 02:18:15;;;;;;;14.00;13.60;;;15.50;1.00;;;;;;4883637;29;20612;-84
2023/08/08 02:20:44;;;;;;;13.57;13.13;;;15.50;1.00;;;;;;4886047;29;20462;-86
2023/08/08 02:23:20;;;;;;;13.90;13.50;;;15.40;1.00;;;;;;4887115;29;20498;-85
2023/08/08 02:25:53;;;;;;;13.57;13.27;;;15.40;1.00;;;;;;4888928;29;20967;-84
2023/08/08 02:28:35;;;;;;;13.70;13.30;;;15.40;1.00;;;;;;4887515;29;20462;-84
2023/08/08 02:31:06;;;;;;;14.17;13.73;;;15.40;1.00;;;;;;4880624;29;20461;-85
2023/08/08 02:33:36;;;;;;;13.80;13.30;;;15.40;1.00;;;;;;4885534;29;20908;-85
2023/08/08 02:36:09;;;;;;;13.47;13.17;;;15.50;1.00;;;;;;4887088;29;20505;-87
2023/08/08 02:38:44;;;;;;;13.70;13.40;;;15.40;1.00;;;;;;4887986;29;20516;-84
2023/08/08 02:41:13;;;;;;;13.80;13.40;;;15.40;1.00;;;;;;4889946;29;20501;-85
2023/08/08 02:43:45;;;;;;;13.50;13.10;;;15.40;1.00;;;;;;4886879;29;20868;-85
2023/08/08 02:46:19;;;;;;;13.60;13.20;;;15.30;1.00;;;;;;4886298;29;20469;-87
2023/08/08 02:48:54;;;;;;;13.87;13.47;;;15.30;1.00;;;;;;4880978;29;20476;-84
2023/08/08 02:51:26;;;;;;;14.33;13.83;;;15.40;1.00;;;;;;4887370;29;20461;-85
2023/08/08 02:53:57;;;;;;;13.53;13.23;;;15.30;1.00;;;;;;4888848;29;20493;-86
2023/08/08 02:56:29;;;;;;;13.83;13.43;;;15.30;1.00;;;;;;4887447;29;20498;-84
2023/08/08 02:59:04;;;;;;;14.50;13.90;;;15.20;1.00;;;;;;4888517;29;20456;-85
2023/08/08 03:01:39;;;;;;;14.30;13.90;;;15.20;1.00;;;;;;4883744;29;20507;-85
2023/08/08 03:04:08;;;;;;;14.07;13.57;;;15.20;1.00;;;;;;4884519;29;20488;-86
2023/08/08 03:06:39;;;;;;;14.10;13.70;;;15.10;35.80;;;;;;4886726;29;20463;-84
2023/08/08 03:09:10;;;;;;;14.47;13.97;;;15.20;3.50;;;;;;4887085;29;20483;-84
2023/08/08 03:11:48;;;;;;;14.00;13.53;;;15.20;1.00;;;;;;4887590;29;20908;-83
2023/08/08 03:14:27;;;;;;;13.90;13.50;;;15.20;6.90;;;;;;4890927;29;20459;-86
2023/08/08 03:16:56;;;;;;;13.80;13.50;;;15.20;12.40;;;;;;4885228;29;20498;-83
2023/08/08 03:19:26;;;;;;;13.67;13.37;;;15.20;4.00;;;;;;4891912;29;20551;-85
2023/08/08 03:21:58;;;;;;;14.03;13.63;;;15.20;1.00;;;;;;4889818;29;20475;-85
2023/08/08 03:24:27;;;;;;;14.33;13.93;;;15.20;1.00;;;;;;4885810;29;20965;-84
2023/08/08 03:26:55;;;;;;;14.00;13.50;;;15.20;1.00;;;;;;4887043;29;21004;-84
2023/08/08 03:29:32;;;;;;;13.80;13.50;;;15.20;1.00;;;;;;4890799;29;20480;-83
2023/08/08 03:32:01;;;;;;;13.90;13.60;;;15.20;1.00;;;;;;4888429;29;20745;-85
2023/08/08 03:34:35;;;;;;;14.60;14.00;;;15.20;10.40;;;;;;4885081;29;20614;-86
2023/08/08 03:37:09;;;;;;;14.23;13.93;;;15.20;91.40;;;;;;4897427;29;20471;-86
2023/08/08 03:39:40;;;;;;;14.10;13.70;;;15.20;8.80;;;;;;4884356;29;20825;-84
2023/08/08 03:42:15;;;;;;;14.17;13.70;;;15.20;1.00;;;;;;4884137;29;20931;-83
2023/08/08 03:45:05;;;;;;;14.60;13.90;;;15.30;17.70;;;;;;4888949;29;20867;-88
2023/08/08 03:47:34;;;;;;;13.73;13.43;;;15.30;1.00;;;;;;4903206;29;20467;-88
2023/08/08 03:50:14;;;;;;;13.77;13.37;;;15.40;1.00;;;;;;4889078;29;21001;-84
2023/08/08 03:52:51;;;;;;;14.00;13.40;;;15.40;1.00;;;;;;4885828;29;20503;-85
2023/08/08 03:55:26;;;;;;;14.07;13.60;;;15.40;1.00;;;;;;4886314;29;20545;-85
2023/08/08 03:58:00;;;;;;;13.87;13.47;;;15.30;1.00;;;;;;4885895;29;20461;-87
2023/08/08 04:00:46;;;;;;;13.77;13.43;;;15.30;31.00;;;;;;4885464;29;20463;-83
2023/08/08 04:03:19;;;;;;;13.20;12.90;;;15.40;1.00;;;;;;4902819;29;20479;-84
2023/08/08 04:05:53;;;;;;;13.00;12.70;;;15.30;45.60;;;;;;4900435;29;20510;-85
2023/08/08 04:08:27;;;;;;;13.50;13.10;;;15.40;1.00;;;;;;4902091;29;20475;-86
2023/08/08 04:10:56;;;;;;;13.87;13.40;;;15.30;1.00;;;;;;4886815;29;20484;-84
2023/08/08 04:13:29;;;;;;;13.60;13.20;;;15.30;1.00;;;;;;4889343;29;20574;-89
2023/08/08 04:16:04;;;;;;;13.60;13.30;;;15.30;1.00;;;;;;4892462;29;20464;-85
2023/08/08 04:18:41;;;;;;;13.47;13.10;;;15.30;1.00;;;;;;4888926;29;20471;-86
2023/08/08 04:21:16;;;;;;;13.40;13.00;;;15.30;1.00;;;;;;4883915;29;20465;-87
2023/08/08 04:23:59;;;;;;;13.93;13.53;;;15.30;1.00;;;;;;4883342;29;21057;-84
2023/08/08 04:26:28;;;;;;;13.83;13.43;;;15.30;1.00;;;;;;4900501;29;20469;-84
2023/08/08 04:28:57;;;;;;;13.43;13.03;;;15.30;1.00;;;;;;4888271;29;20467;-85
2023/08/08 04:31:35;;;;;;;13.03;12.73;;;15.30;1.00;;;;;;4884492;29;20604;-90
2023/08/08 04:34:59;;;;;;;13.43;12.83;;;15.30;1.00;;;;;;4887280;29;20492;-86
2023/08/08 04:37:31;;;;;;;13.20;12.80;;;15.30;1.00;;;;;;4902442;29;20844;-84
2023/08/08 04:40:08;;;;;;;13.17;12.87;;;15.30;1.00;;;;;;4882612;29;20554;-88
2023/08/08 04:42:49;;;;;;;13.80;13.20;;;15.20;1.00;;;;;;4884090;29;20486;-85
2023/08/08 04:45:21;;;;;;;14.77;14.03;;;15.20;1.00;;;;;;4884283;29;20464;-86
2023/08/08 04:47:53;;;;;;;13.60;13.20;;;15.10;1.00;;;;;;4885273;29;20461;-85
2023/08/08 04:50:28;;;;;;;13.40;13.00;;;15.20;1.00;;;;;;4881191;29;20489;-87
2023/08/08 04:52:58;;;;;;;13.37;12.90;;;15.20;1.00;;;;;;4886988;29;20489;-84
2023/08/08 04:55:29;;;;;;;12.80;12.50;;;15.20;1.00;;;;;;4883226;29;20463;-86
2023/08/08 04:58:05;;;;;;;13.20;12.80;;;15.20;1.00;;;;;;4888036;29;20460;-85
2023/08/08 05:00:36;;;;;;;12.73;12.40;;;15.30;57.00;;;;;;4883526;29;20470;-86
2023/08/08 05:03:10;;;;;;;13.50;12.90;;;15.30;1.00;;;;;;4884584;29;20522;-85
2023/08/08 05:05:40;;;;;;;12.90;12.60;;;15.20;1.00;;;;;;4882366;29;20859;-87
2023/08/08 05:08:13;;;;;;;13.50;13.10;;;15.30;1.00;;;;;;4885774;29;20901;-85
2023/08/08 05:10:44;;;;;;;12.90;12.60;;;15.30;1.00;;;;;;4885974;29;20487;-85
2023/08/08 05:13:16;;;;;;;13.47;13.07;;;15.30;1.00;;;;;;4886865;29;20484;-84
2023/08/08 05:15:46;;;;;;;13.70;13.20;;;15.40;1.00;;;;;;4882979;29;20503;-84
2023/08/08 05:18:29;;;;;;;13.17;12.77;;;15.30;1.00;;;;;;4890231;29;20479;-85
2023/08/08 05:20:58;;;;;;;13.57;13.10;;;15.20;1.00;;;;;;4882098;29;20466;-84
2023/08/08 05:23:33;;;;;;;13.23;12.83;;;15.20;1.00;;;;;;4884311;29;20490;-84
2023/08/08 05:26:09;;;;;;;13.70;13.20;;;15.20;1.00;;;;;;4882720;29;20463;-87
2023/08/08 05:28:53;;;;;;;13.30;12.90;;;15.10;1.00;;;;;;4886149;29;20471;-84
2023/08/08 05:31:25;;;;;;;13.70;12.93;;;15.20;36.40;;;;;;4881830;29;20499;-84
2023/08/08 05:33:57;;;;;;;13.77;13.20;;;15.20;65.70;;;;;;4884820;29;20509;-84
2023/08/08 05:36:29;;;;;;;13.57;13.17;;;15.20;15.80;;;;;;4885126;29;20470;-88
2023/08/08 05:39:03;;;;;;;14.40;13.90;;;15.20;4.80;;;;;;4887363;29;20648;-85
2023/08/08 05:41:45;;;;;;;;;;;;;;;;;;;;;
2023/08/08 05:44:16;;;;;;;13.87;13.37;;;15.30;23.30;;;;;;4884982;29;20482;-88
2023/08/08 05:46:48;;;;;;;13.73;13.33;;;15.30;16.20;;;;;;4885496;29;20823;-85
2023/08/08 05:49:22;;;;;;;13.30;13.00;;;15.30;5.90;;;;;;4887017;29;20467;-87
2023/08/08 05:51:53;;;;;;;13.77;13.40;;;15.30;33.70;;;;;;4886261;29;20905;-85
2023/08/08 05:54:26;;;;;;;13.63;13.33;;;15.40;1.00;;;;;;4879069;29;21013;-85
2023/08/08 05:57:01;;;;;;;14.10;13.70;;;15.40;88.20;;;;;;4882560;29;21012;-86
2023/08/08 05:59:37;;;;;;;13.87;13.47;;;15.50;21.20;;;;;;4883828;29;20478;-85
2023/08/08 06:02:07;;;;;;;14.27;13.70;;;15.60;1.00;;;;;;4887208;29;20460;-86
2023/08/08 06:04:40;;;;;;;14.10;13.70;;;15.70;1.00;;;;;;4891055;29;20541;-84
2023/08/08 06:07:12;;;;;;;14.40;14.00;;;15.80;1.00;;;;;;4892862;29;20952;-83
2023/08/08 06:09:43;;;;;;;14.10;13.70;;;15.80;1.00;;;;;;4888916;29;20460;-84
2023/08/08 06:12:20;;;;;;;14.03;13.63;;;15.80;1.00;;;;;;4881180;29;20483;-83
2023/08/08 06:14:54;;;;;;;14.93;14.43;;;15.90;1.00;;;;;;4880492;29;20691;-83
2023/08/08 06:17:27;;;;;;;14.17;13.83;;;16.00;1.00;;;;;;4886662;29;20461;-83
2023/08/08 06:19:57;;;;;;;14.40;14.00;;;15.90;1.00;;;;;;4891350;29;20561;-81
2023/08/08 06:22:28;;;;;;;14.40;13.90;;;16.00;1.00;;;;;;4893683;29;21153;-82
2023/08/08 06:25:01;;;;;;;14.60;14.10;;;16.10;1.00;;;;;;4877340;29;20509;-82
2023/08/08 06:27:30;;;;;;;15.00;14.50;;;16.20;1.00;;;;;;4887301;29;20466;-81
2023/08/08 06:30:05;;;;;;;15.77;15.17;;;16.30;1.00;;;;;;4903268;29;20470;-80
2023/08/08 06:32:36;;;;;;;15.10;14.70;;;16.40;1.00;;;;;;4884768;29;20460;-82
2023/08/08 06:35:09;;;;;;;14.77;14.37;;;16.40;1.00;;;;;;4887748;29;20210;-83
2023/08/08 06:37:40;;;;;;;15.50;15.00;;;16.50;1.00;;;;;;4887708;29;20466;-82
2023/08/08 06:40:13;;;;;;;15.27;14.83;;;16.60;1.00;;;;;;4887180;29;20301;-84
2023/08/08 06:42:41;;;;;;;15.17;14.67;;;16.80;1.00;;;;;;4891364;29;20478;-81
2023/08/08 06:45:15;;;;;;;14.97;14.57;;;16.90;1.00;;;;;;4910357;29;20495;-84
2023/08/08 06:47:48;;;;;;;15.20;14.70;;;17.00;1.00;;;;;;4893607;29;20469;-80
2023/08/08 06:50:24;;;;;;;15.40;14.80;;;17.10;1.00;;;;;;4895627;29;21075;-86
2023/08/08 06:53:00;;;;;;;15.60;15.00;;;17.30;1.00;;;;;;4892660;29;20492;-83
2023/08/08 06:55:31;;;;;;;14.77;14.30;;;17.60;1.00;;;;;;4890148;29;20474;-82
2023/08/08 06:58:01;;;;;;;15.40;14.80;;;17.80;99.90;;;;;;4893283;29;20471;-84
2023/08/08 07:00:34;;;;;;;15.33;14.83;;;18.10;99.90;;;;;;4893751;29;20455;-83
2023/08/08 07:03:12;;;;;;;15.10;14.27;;;18.20;99.90;;;;;;4891811;29;21414;-86
2023/08/08 07:05:44;;;;;;;14.77;14.33;;;18.20;99.90;;;;;;4893386;29;20477;-83
2023/08/08 07:08:15;;;;;;;15.03;14.50;;;18.20;99.90;;;;;;4891466;29;20895;-83
2023/08/08 07:10:45;;;;;;;14.70;14.20;;;18.20;99.90;;;;;;4886923;29;20467;-83
2023/08/08 07:13:15;;;;;;;14.87;14.30;;;18.20;99.90;;;;;;4889015;29;20576;-82
2023/08/08 07:15:44;;;;;;;14.60;14.20;;;18.30;99.90;;;;;;4890345;29;20565;-84
2023/08/08 07:18:17;;;;;;;15.88;15.38;;;18.40;99.90;;;;;;4886058;29;20456;-86
2023/08/08 07:20:49;;;;;;;15.20;14.80;;;18.50;99.90;;;;;;4890723;29;20474;-82
2023/08/08 07:23:22;;;;;;;15.13;14.63;;;18.60;99.90;;;;;;4894395;29;20237;-81
2023/08/08 07:25:54;;;;;;;14.77;14.37;;;18.70;99.90;;;;;;4893047;29;20876;-82
2023/08/08 07:28:28;;;;;;;14.87;14.47;;;18.80;99.90;;;;;;4893330;29;20480;-81
2023/08/08 07:31:03;;;;;;;14.40;14.00;;;18.80;99.90;;;;;;4889785;29;20479;-79
2023/08/08 07:33:34;;;;;;;14.73;14.23;;;18.90;99.90;;;;;;4890689;29;20491;-83
2023/08/08 07:36:05;;;;;;;14.30;13.90;;;18.80;99.90;;;;;;4886753;29;20910;-81
2023/08/08 07:38:38;;;;;;;15.17;14.67;;;18.80;99.90;;;;;;4890417;29;20826;-81
2023/08/08 07:41:08;;;;;;;14.57;14.17;;;18.80;99.90;;;;;;4890972;29;20944;-83
2023/08/08 07:43:39;;;;;;;14.90;14.50;;;18.80;99.90;;;;;;4892439;29;20542;-84
2023/08/08 07:46:11;;;;;;;14.60;14.20;;;18.80;99.90;;;;;;4887647;29;20462;-83
2023/08/08 07:48:48;;;;;;;14.80;14.30;;;18.70;99.90;;;;;;4895906;29;20459;-80
2023/08/08 07:51:24;;;;;;;14.23;13.83;;;18.70;99.90;;;;;;4892695;29;20466;-83
2023/08/08 07:53:54;;;;;;;14.53;14.13;;;18.70;99.90;;;;;;4889885;29;20800;-82
2023/08/08 07:56:27;;;;;;;14.90;14.50;;;18.70;99.90;;;;;;4893183;29;20796;-84
2023/08/08 07:58:56;;;;;;;14.80;14.40;;;18.70;99.90;;;;;;4889887;29;20578;-81
2023/08/08 08:01:28;;;;;;;14.43;14.03;;;18.70;99.90;;;;;;4890709;29;20466;-82
2023/08/08 08:03:56;;;;;;;14.97;14.57;;;18.70;99.90;;;;;;4889195;29;20519;-82
2023/08/08 08:06:26;;;;;;;14.63;14.23;;;18.70;99.90;;;;;;4887278;29;20470;-83
2023/08/08 08:09:00;;;;;;;15.27;14.77;;;18.70;99.90;;;;;;4896430;29;20493;-80
2023/08/08 08:11:32;;;;;;;15.87;15.13;;;18.60;99.90;;;;;;4888432;29;20506;-81
2023/08/08 08:14:00;;;;;;;14.97;14.57;;;18.70;99.90;;;;;;4895226;29;20526;-84
2023/08/08 08:16:32;;;;;;;15.10;14.70;;;18.70;99.90;;;;;;4893554;29;20942;-81
2023/08/08 08:19:01;;;;;;;15.00;14.60;;;18.80;99.90;;;;;;4893100;29;20459;-82
2023/08/08 08:21:37;;;;;;;15.03;14.53;;;18.80;99.90;;;;;;4890144;29;20475;-81
2023/08/08 08:24:10;;;;;;;15.17;14.70;;;18.90;99.90;;;;;;4891609;29;20486;-79
2023/08/08 08:26:44;;;;;;;15.17;14.67;;;18.90;99.90;;;;;;4889992;29;20541;-81
2023/08/08 08:29:17;;;;;;;15.23;14.83;;;18.90;99.90;;;;;;4886665;29;20476;-83
2023/08/08 08:31:53;;;;;;;15.33;14.83;;;18.80;99.90;;;;;;4892094;29;20462;-81
2023/08/08 08:34:25;;;;;;;15.20;14.80;;;18.90;99.90;;;;;;4936978;23;21102;-82
2023/08/08 08:36:59;;;;;;;16.00;15.30;;;18.90;99.90;;;;;;4909543;29;20467;-82
2023/08/08 08:39:31;;;;;;;15.03;14.63;;;18.90;99.90;;;;;;4910581;29;20476;-82
2023/08/08 08:42:04;;;;;;;15.60;15.10;;;18.80;99.90;;;;;;4904254;29;20465;-81
2023/08/08 08:44:36;;;;;;;15.60;15.10;;;18.80;99.90;;;;;;4904525;29;20469;-83
2023/08/08 08:47:12;;;;;;;15.20;14.80;;;18.70;99.90;;;;;;4905515;29;20460;-80
2023/08/08 08:49:43;;;;;;;16.00;15.50;;;18.80;99.90;;;;;;4899232;29;22468;-82
2023/08/08 08:52:19;;;;;;;15.30;14.80;;;18.60;99.90;;;;;;4900381;29;20573;-81
2023/08/08 08:54:50;;;;;;;15.03;14.53;;;18.70;99.90;;;;;;4903256;29;20476;-79
2023/08/08 08:57:23;;;;;;;15.33;14.83;;;18.80;99.90;;;;;;4905919;29;20539;-82
2023/08/08 08:59:52;;;;;;;15.93;15.43;;;18.90;99.90;;;;;;4902761;29;20979;-81
2023/08/08 09:02:24;;;;;;;15.93;15.53;;;19.00;99.90;;;;;;4911010;29;20482;-83
2023/08/08 09:04:56;;;;;;;15.67;15.13;;;19.00;99.90;;;;;;4899172;29;20454;-82
2023/08/08 09:07:29;;;;;;;15.00;14.60;;;19.00;99.90;;;;;;4899886;29;20471;-81
2023/08/08 09:10:03;;;;;;;15.57;15.07;;;19.00;99.90;;;;;;4903071;29;20465;-81
2023/08/08 09:12:32;;;;;;;15.40;14.90;;;18.90;99.90;;;;;;4907634;29;20548;-82
2023/08/08 09:15:05;;;;;;;15.90;15.40;;;18.90;99.90;;;;;;4906105;29;20473;-81
2023/08/08 09:17:38;;;;;;;15.90;15.40;;;19.00;99.90;;;;;;4911579;29;20454;-81
2023/08/08 09:20:16;;;;;;;15.10;14.70;;;19.10;99.90;;;;;;4899626;29;20472;-82
2023/08/08 09:22:52;;;;;;;15.00;14.50;;;19.20;99.90;;;;;;4900528;29;20485;-80
2023/08/08 09:25:26;;;;;;;14.20;13.90;;;19.30;99.90;;;;;;4898550;29;20469;-83
2023/08/08 09:28:01;;;;;;;14.57;14.17;;;19.30;99.90;;;;;;4906360;29;20461;-80
2023/08/08 09:30:34;;;;;;;15.07;14.57;;;19.30;99.90;;;;;;4904786;29;20467;-82
2023/08/08 09:33:03;;;;;;;14.97;14.50;;;19.40;99.90;;;;;;4905427;29;20493;-81
2023/08/08 09:35:38;;;;;;;15.10;14.60;;;19.40;99.90;;;;;;4903556;29;20470;-81
2023/08/08 09:38:15;;;;;;;15.40;14.90;;;19.40;99.90;;;;;;4908277;29;20804;-82
2023/08/08 09:40:48;;;;;;;14.90;14.50;;;19.50;99.90;;;;;;4918121;29;20469;-81
2023/08/08 09:43:20;;;;;;;14.70;14.20;;;19.60;99.90;;;;;;4904024;29;20489;-83
2023/08/08 09:45:54;;;;;;;14.53;14.00;;;19.60;99.90;;;;;;4903935;29;20564;-81
2023/08/08 09:48:30;;;;;;;14.77;14.30;;;19.60;99.90;;;;;;4905864;29;20461;-81
2023/08/08 09:51:06;;;;;;;14.10;13.70;;;19.60;99.90;;;;;;4903438;29;20473;-82
2023/08/08 09:53:41;;;;;;;14.67;14.27;;;19.50;99.90;;;;;;4904826;29;20577;-80
2023/08/08 09:56:16;;;;;;;14.40;14.00;;;19.70;99.90;;;;;;4911573;29;20520;-81
2023/08/08 09:58:53;;;;;;;14.57;14.17;;;19.60;99.90;;;;;;4910870;29;20502;-84
2023/08/08 10:01:23;;;;;;;14.30;13.90;;;19.70;99.90;;;;;;4898569;29;20484;-82
2023/08/08 10:04:00;;;;;;;14.90;14.50;;;19.70;99.90;;;;;;4901266;29;20494;-81
2023/08/08 10:06:32;;;;;;;14.20;13.90;;;19.80;99.90;;;;;;4909850;29;20458;-81
2023/08/08 10:09:08;;;;;;;15.33;14.67;;;19.70;99.90;;;;;;4913255;29;20466;-81
2023/08/08 10:11:37;;;;;;;15.20;14.60;;;19.80;99.90;;;;;;4908670;29;20525;-82
2023/08/08 10:14:11;;;;;;;15.07;14.67;;;19.90;99.90;;;;;;4906308;29;20490;-82
2023/08/08 10:17:06;;;;;;;14.57;14.17;;;19.90;99.90;;;;;;4906934;29;20525;-81
2023/08/08 10:20:17;;;;;;;14.90;14.37;;;20.00;99.90;;;;;;4911600;29;21110;-81
2023/08/08 10:22:51;;;;;;;14.67;14.33;;;20.10;99.90;;;;;;4910704;29;20489;-83
2023/08/08 10:25:24;;;;;;;14.80;14.30;;;20.20;99.90;;;;;;4912200;29;20465;-82
2023/08/08 10:28:10;;;;;;;15.07;14.57;;;20.20;99.90;;;;;;4912384;29;20454;-83
2023/08/08 10:30:48;;;;;;;14.23;13.73;;;20.20;99.90;;;;;;4912055;29;20502;-82
2023/08/08 10:33:25;;;;;;;13.90;13.60;;;20.10;99.90;;;;;;4908486;29;20494;-83
2023/08/08 10:36:03;;;;;;;13.37;13.03;;;20.10;99.90;;;;;;4911322;29;20462;-82
2023/08/08 10:38:44;;;;;;;13.60;13.00;;;20.10;99.90;;;;;;4912244;29;20550;-82
2023/08/08 10:41:22;;;;;;;14.10;13.70;;;20.20;99.90;;;;;;4913331;29;20504;-84
2023/08/08 10:43:54;;;;;;;14.53;14.13;;;20.10;99.90;;;;;;4911914;29;20481;-83
2023/08/08 10:46:28;;;;;;;14.10;13.70;;;20.20;99.90;;;;;;4910425;29;20470;-81
2023/08/08 10:49:08;;;;;;;13.93;13.43;;;20.20;99.90;;;;;;4908672;29;21042;-82
2023/08/08 10:51:43;;;;;;;14.10;13.60;;;20.10;99.90;;;;;;4904109;29;20466;-82
2023/08/08 10:54:17;;;;;;;13.30;13.00;;;20.20;99.90;;;;;;4901616;29;20498;-82
2023/08/08 10:56:55;;;;;;;13.40;13.10;;;20.30;99.90;;;;;;4906998;29;21111;-83
2023/08/08 10:59:30;;;;;;;12.93;12.60;;;20.30;99.90;;;;;;4904481;29;20834;-83
2023/08/08 11:02:07;;;;;;;13.30;12.90;;;20.40;99.90;;;;;;4902248;29;20660;-80
2023/08/08 11:04:38;;;;;;;13.27;12.87;;;20.50;99.90;;;;;;4905263;29;20501;-84
2023/08/08 11:07:11;;;;;;;13.30;12.90;;;20.60;99.90;;;;;;4904653;29;20470;-83
2023/08/08 11:09:46;;;;;;;13.83;13.27;;;20.60;99.90;;;;;;4904107;29;20934;-83
2023/08/08 11:12:26;;;;;;;13.20;12.60;;;20.70;99.90;;;;;;4905005;29;20465;-83
2023/08/08 11:14:56;;;;;;;13.03;12.63;;;20.70;99.90;;;;;;4903825;29;20487;-83
2023/08/08 11:17:30;;;;;;;12.40;12.10;;;20.70;99.90;;;;;;4904207;29;20473;-82
2023/08/08 11:20:06;;;;;;;13.00;12.50;;;20.80;99.90;;;;;;4902949;29;20490;-83
2023/08/08 11:22:39;;;;;;;12.80;12.40;;;20.70;99.90;;;;;;4905288;29;21130;-84
2023/08/08 11:25:23;;;;;;;12.73;12.43;;;20.80;99.90;;;;;;4905705;29;20477;-83
2023/08/08 11:28:01;;;;;;;12.60;12.30;;;20.90;99.90;;;;;;4906167;29;20474;-82
2023/08/08 11:30:36;;;;;;;13.10;12.50;;;20.90;99.90;;;;;;4904014;29;20838;-81
2023/08/08 11:33:10;;;;;;;13.80;13.30;;;20.80;99.90;;;;;;4901948;29;20527;-83
2023/08/08 11:35:49;;;;;;;12.70;12.30;;;21.00;99.90;;;;;;4906629;29;20484;-84
2023/08/08 11:38:19;;;;;;;12.83;12.13;;;21.00;99.90;;;;;;4903824;29;20465;-82
2023/08/08 11:40:48;;;;;;;12.50;12.17;;;21.10;99.90;;;;;;4905524;29;20510;-83
2023/08/08 11:43:23;;;;;;;12.17;11.80;;;21.20;99.90;;;;;;4904815;29;20483;-82
2023/08/08 11:45:54;;;;;;;12.53;12.03;;;21.00;99.90;;;;;;4909619;29;20518;-83
2023/08/08 11:48:27;;;;;;;12.30;11.90;;;21.00;99.90;;;;;;4922949;29;20471;-81
2023/08/08 11:50:58;;;;;;;12.53;12.13;;;21.00;99.90;;;;;;4904670;29;20495;-81
2023/08/08 11:53:30;;;;;;;12.20;11.90;;;20.90;99.90;;;;;;4908071;29;20478;-81
2023/08/08 11:56:05;;;;;;;12.20;11.90;;;20.80;99.90;;;;;;4912853;29;20463;-83
2023/08/08 11:58:45;;;;;;;11.97;11.67;;;21.00;99.90;;;;;;4908894;29;20500;-82
2023/08/08 12:01:21;;;;;;;12.00;11.70;;;21.10;99.90;;;;;;4903902;29;20558;-84
2023/08/08 12:03:55;;;;;;;12.70;12.30;;;21.20;99.90;;;;;;4905413;29;20568;-85
2023/08/08 12:06:33;;;;;;;12.13;11.83;;;21.20;99.90;;;;;;4912251;29;20539;-83
2023/08/08 12:09:13;;;;;;;12.90;12.60;;;21.20;99.90;;;;;;4915671;29;20567;-82
2023/08/08 12:11:50;;;;;;;12.27;11.97;;;21.20;99.90;;;;;;4916318;29;20458;-82
2023/08/08 12:14:28;;;;;;;13.50;13.00;;;21.10;99.90;;;;;;4917215;29;20596;-83
2023/08/08 12:16:59;;;;;;;12.60;12.30;;;21.10;99.90;;;;;;4915534;29;20451;-83
2023/08/08 12:19:35;;;;;;;11.97;11.67;;;21.20;99.90;;;;;;4914840;29;20549;-85
2023/08/08 12:22:11;;;;;;;12.47;12.07;;;21.10;99.90;;;;;;4912608;29;20452;-84
2023/08/08 12:24:48;;;;;;;12.47;12.17;;;21.00;99.90;;;;;;4916995;29;20458;-86
2023/08/08 12:27:22;;;;;;;12.87;12.47;;;21.00;99.90;;;;;;4916636;29;20482;-83
2023/08/08 12:29:56;;;;;;;12.80;12.40;;;21.10;99.90;;;;;;4910752;29;20497;-84
2023/08/08 12:32:31;;;;;;;12.60;12.30;;;21.10;99.90;;;;;;4932837;29;20520;-81
2023/08/08 12:35:11;;;;;;;12.93;12.63;;;21.30;99.90;;;;;;4921418;29;20496;-84
2023/08/08 12:37:42;;;;;;;12.13;11.83;;;21.30;99.90;;;;;;4917852;29;20486;-81
2023/08/08 12:40:19;;;;;;;12.30;12.00;;;21.30;99.90;;;;;;4918124;29;20542;-84
2023/08/08 12:42:50;;;;;;;11.87;11.57;;;21.40;99.90;;;;;;4925327;29;20524;-83
2023/08/08 12:45:24;;;;;;;12.50;12.10;;;21.40;99.90;;;;;;4924842;29;20456;-84
2023/08/08 12:47:58;;;;;;;12.33;11.93;;;21.40;99.90;;;;;;4924070;29;20489;-85
2023/08/08 12:50:28;;;;;;;13.00;12.67;;;21.40;99.90;;;;;;4917177;29;20489;-85
2023/08/08 12:52:59;;;;;;;12.97;12.50;;;21.30;99.90;;;;;;4915644;29;20470;-82
2023/08/08 12:55:34;;;;;;;12.43;12.13;;;21.20;99.90;;;;;;4917236;29;20487;-84
2023/08/08 12:58:07;;;;;;;12.80;12.40;;;21.10;99.90;;;;;;4922484;29;20482;-84
2023/08/08 13:00:48;;;;;;;13.47;12.90;;;21.10;99.90;;;;;;4913540;29;20455;-85
2023/08/08 13:03:27;;;;;;;12.50;12.20;;;21.00;99.90;;;;;;4917333;29;20489;-84
2023/08/08 13:05:56;;;;;;;12.97;12.47;;;20.90;99.90;;;;;;4910902;29;20464;-80
2023/08/08 13:08:28;;;;;;;12.53;12.10;;;20.80;99.90;;;;;;4909454;29;20466;-81